createdAt,value
2023-01-29T00:00:09.964Z,9.15
2023-01-29T00:01:11.841Z,9.07
2023-01-29T00:02:13.417Z,8.52
2023-01-29T00:03:16.015Z,7.93
2023-01-29T00:04:18.184Z,8.38
2023-01-29T00:05:28.456Z,7.80
2023-01-29T00:06:30.656Z,8.10
2023-01-29T00:07:32.550Z,9.23
2023-01-29T00:08:38.621Z,8.55
2023-01-29T00:09:40.429Z,8.98
2023-01-29T00:10:41.841Z,9.07
2023-01-29T00:11:43.572Z,8.88
2023-01-29T00:12:44.970Z,8.52
2023-01-29T00:13:46.701Z,8.88
2023-01-29T00:14:48.166Z,9.27
2023-01-29T00:15:57.438Z,9.27
2023-01-29T00:16:58.839Z,8.93
2023-01-29T00:18:00.249Z,9.27
2023-01-29T00:19:02.636Z,9.38
2023-01-29T00:20:04.341Z,9.07
2023-01-29T00:21:13.469Z,9.30
2023-01-29T00:22:14.953Z,8.77
2023-01-29T00:23:16.543Z,9.40
2023-01-29T00:24:18.166Z,9.40
2023-01-29T00:25:19.597Z,9.93
2023-01-29T00:26:21.073Z,9.23
2023-01-29T00:27:22.513Z,9.43
2023-01-29T00:28:23.962Z,9.70
2023-01-29T00:29:25.409Z,9.60
2023-01-29T00:30:26.822Z,8.90
2023-01-29T00:31:28.727Z,9.27
2023-01-29T00:32:30.203Z,8.82
2023-01-29T00:33:31.643Z,8.32
2023-01-29T00:34:33.070Z,8.57
2023-01-29T00:35:35.114Z,10.15
2023-01-29T00:36:36.579Z,9.63
2023-01-29T00:37:38.454Z,9.52
2023-01-29T00:38:40.112Z,9.43
2023-01-29T00:39:47.805Z,8.48
2023-01-29T00:41:08.469Z,9.65
2023-01-29T00:42:28.250Z,8.27
2023-01-29T00:43:48.102Z,9.00
2023-01-29T00:44:58.745Z,8.93
2023-01-29T00:46:00.176Z,8.75
2023-01-29T00:47:02.429Z,9.15
2023-01-29T00:48:04.259Z,8.82
2023-01-29T00:49:07.076Z,8.77
2023-01-29T00:50:11.119Z,8.77
2023-01-29T00:51:12.567Z,9.40
2023-01-29T00:52:26.027Z,8.75
2023-01-29T00:53:28.013Z,8.70
2023-01-29T00:54:30.099Z,6.68
2023-01-29T00:55:32.426Z,7.75
2023-01-29T00:56:36.690Z,9.55
2023-01-29T00:57:39.011Z,9.43
2023-01-29T00:58:40.508Z,9.85
2023-01-29T00:59:41.970Z,8.98
2023-01-29T01:00:43.510Z,9.25
2023-01-29T01:02:03.568Z,8.95
2023-01-29T01:03:07.904Z,8.80
2023-01-29T01:04:11.354Z,9.15
2023-01-29T01:05:18.189Z,8.73
2023-01-29T01:06:19.774Z,9.45
2023-01-29T01:07:21.198Z,8.60
2023-01-29T01:08:41.367Z,8.95
2023-01-29T01:10:01.096Z,8.88
2023-01-29T01:11:05.332Z,9.07
2023-01-29T01:12:06.794Z,9.05
2023-01-29T01:13:08.367Z,9.82
2023-01-29T01:14:09.808Z,11.60
2023-01-29T01:15:11.882Z,9.80
2023-01-29T01:16:15.511Z,10.77
2023-01-29T01:17:17.415Z,10.00
2023-01-29T01:18:22.183Z,10.52
2023-01-29T01:19:23.611Z,9.82
2023-01-29T01:20:27.062Z,10.82
2023-01-29T01:21:28.479Z,10.13
2023-01-29T01:22:31.116Z,10.27
2023-01-29T01:23:33.256Z,9.95
2023-01-29T01:25:36.353Z,9.35
2023-01-29T01:26:37.815Z,9.52
2023-01-29T01:27:41.261Z,10.65
2023-01-29T01:28:42.736Z,9.93
2023-01-29T01:29:44.149Z,10.35
2023-01-29T01:30:45.669Z,9.70
2023-01-29T01:31:47.142Z,10.45
2023-01-29T01:32:48.847Z,10.18
2023-01-29T01:33:51.577Z,10.32
2023-01-29T01:34:53.598Z,9.57
2023-01-29T01:35:55.024Z,10.35
2023-01-29T01:36:56.574Z,10.48
2023-01-29T01:37:58.128Z,10.82
2023-01-29T01:38:59.586Z,10.52
2023-01-29T01:40:00.974Z,9.77
2023-01-29T01:41:02.400Z,9.77
2023-01-29T01:42:03.967Z,10.63
2023-01-29T01:43:06.173Z,9.98
2023-01-29T01:45:19.915Z,9.63
2023-01-29T01:46:22.229Z,10.02
2023-01-29T01:47:29.384Z,10.65
2023-01-29T01:48:30.830Z,10.80
2023-01-29T01:49:32.260Z,11.07
2023-01-29T01:50:49.769Z,10.98
2023-01-29T01:51:52.583Z,10.50
2023-01-29T01:52:59.892Z,11.25
2023-01-29T01:54:09.934Z,10.63
2023-01-29T01:55:14.697Z,11.20
2023-01-29T01:56:27.808Z,11.40
2023-01-29T01:57:32.099Z,10.63
2023-01-29T01:58:37.448Z,10.20
2023-01-29T01:59:40.879Z,10.38
2023-01-29T02:00:42.791Z,11.25
2023-01-29T02:01:50.118Z,12.25
2023-01-29T02:03:10.497Z,11.52
2023-01-29T02:04:35.295Z,11.30
2023-01-29T02:05:56.613Z,10.88
2023-01-29T02:07:19.495Z,10.45
2023-01-29T02:08:50.873Z,10.18
2023-01-29T02:09:58.079Z,10.68
2023-01-29T02:11:00.154Z,11.23
2023-01-29T02:12:03.839Z,11.18
2023-01-29T02:13:07.295Z,11.75
2023-01-29T02:14:09.302Z,11.77
2023-01-29T02:15:11.477Z,10.20
2023-01-29T02:17:16.898Z,10.63
2023-01-29T02:18:21.489Z,11.02
2023-01-29T02:19:47.112Z,11.48
2023-01-29T02:21:34.745Z,11.15
2023-01-29T02:22:54.979Z,11.30
2023-01-29T02:25:16.602Z,10.70
2023-01-29T02:26:40.890Z,11.55
2023-01-29T02:27:48.354Z,11.77
2023-01-29T02:29:25.350Z,10.98
2023-01-29T02:30:46.143Z,12.15
2023-01-29T02:31:57.015Z,11.93
2023-01-29T02:33:16.570Z,11.85
2023-01-29T02:34:27.590Z,12.07
2023-01-29T02:35:34.565Z,11.60
2023-01-29T02:36:45.649Z,11.90
2023-01-29T02:38:05.083Z,12.23
2023-01-29T02:39:21.246Z,11.70
2023-01-29T02:40:36.932Z,12.18
2023-01-29T02:42:00.827Z,11.48
2023-01-29T02:43:06.441Z,12.25
2023-01-29T02:44:22.794Z,12.23
2023-01-29T02:45:59.684Z,11.25
2023-01-29T02:47:21.954Z,11.38
2023-01-29T02:48:27.616Z,11.40
2023-01-29T02:49:34.118Z,12.38
2023-01-29T02:50:57.873Z,11.90
2023-01-29T02:52:14.931Z,12.00
2023-01-29T02:53:27.341Z,11.98
2023-01-29T02:54:41.911Z,11.60
2023-01-29T02:56:02.694Z,12.43
2023-01-29T02:57:16.428Z,11.48
2023-01-29T02:58:44.133Z,11.60
2023-01-29T02:59:55.400Z,11.98
2023-01-29T03:01:04.436Z,9.18
2023-01-29T03:02:12.962Z,11.60
2023-01-29T03:03:19.035Z,12.15
2023-01-29T03:04:25.857Z,10.43
2023-01-29T03:05:35.102Z,10.90
2023-01-29T03:06:42.111Z,11.50
2023-01-29T03:07:52.013Z,11.57
2023-01-29T03:09:01.141Z,11.82
2023-01-29T03:10:08.243Z,11.43
2023-01-29T03:11:14.807Z,11.45
2023-01-29T03:12:33.858Z,12.15
2023-01-29T03:13:43.248Z,10.55
2023-01-29T03:15:07.601Z,11.20
2023-01-29T03:16:32.557Z,11.35
2023-01-29T03:17:41.076Z,11.07
2023-01-29T03:19:05.873Z,10.63
2023-01-29T03:20:13.835Z,10.43
2023-01-29T03:21:41.216Z,11.27
2023-01-29T03:22:48.843Z,12.18
2023-01-29T03:24:08.654Z,11.13
2023-01-29T03:25:30.995Z,10.68
2023-01-29T03:26:50.706Z,11.25
2023-01-29T03:28:22.943Z,11.02
2023-01-29T03:29:43.237Z,11.35
2023-01-29T03:31:10.724Z,11.13
2023-01-29T03:32:14.588Z,11.40
2023-01-29T03:33:19.330Z,11.25
2023-01-29T03:34:28.369Z,11.90
2023-01-29T03:35:37.445Z,11.88
2023-01-29T03:36:56.290Z,12.13
2023-01-29T03:37:57.733Z,11.00
2023-01-29T03:38:59.418Z,13.25
2023-01-29T03:40:05.401Z,11.32
2023-01-29T03:41:16.456Z,11.63
2023-01-29T03:42:26.599Z,11.48
2023-01-29T03:43:33.673Z,11.80
2023-01-29T03:44:40.251Z,12.88
2023-01-29T03:46:00.108Z,12.35
2023-01-29T03:47:43.398Z,12.07
2023-01-29T03:48:54.484Z,11.25
2023-01-29T03:50:19.530Z,12.30
2023-01-29T03:51:32.441Z,12.20
2023-01-29T03:52:47.213Z,11.32
2023-01-29T03:53:55.436Z,12.27
2023-01-29T03:56:08.547Z,10.45
2023-01-29T03:57:33.452Z,9.40
2023-01-29T03:58:47.593Z,9.98
2023-01-29T03:59:57.792Z,12.10
2023-01-29T04:01:09.045Z,13.25
2023-01-29T04:02:15.504Z,13.05
2023-01-29T04:03:33.243Z,12.50
2023-01-29T04:04:37.555Z,12.40
2023-01-29T04:06:11.657Z,11.55
2023-01-29T04:07:24.408Z,11.70
2023-01-29T04:08:30.474Z,13.18
2023-01-29T04:09:37.337Z,11.13
2023-01-29T04:10:41.996Z,12.60
2023-01-29T04:11:49.547Z,12.45
2023-01-29T04:12:59.682Z,10.52
2023-01-29T04:14:01.279Z,12.35
2023-01-29T04:15:09.124Z,13.80
2023-01-29T04:16:16.853Z,13.13
2023-01-29T04:17:24.111Z,12.57
2023-01-29T04:18:25.635Z,12.88
2023-01-29T04:19:28.076Z,13.00
2023-01-29T04:20:29.890Z,12.98
2023-01-29T04:21:32.015Z,14.25
2023-01-29T04:23:36.562Z,11.60
2023-01-29T04:24:38.077Z,12.90
2023-01-29T04:26:06.791Z,12.70
2023-01-29T04:27:29.742Z,12.20
2023-01-29T04:29:16.498Z,13.23
2023-01-29T04:30:18.153Z,12.15
2023-01-29T04:31:27.226Z,12.63
2023-01-29T04:32:40.729Z,12.02
2023-01-29T04:34:05.623Z,14.20
2023-01-29T04:35:41.810Z,12.35
2023-01-29T04:37:02.876Z,12.73
2023-01-29T04:38:10.354Z,12.40
2023-01-29T04:39:28.726Z,13.02
2023-01-29T04:41:02.263Z,12.88
2023-01-29T04:42:14.701Z,11.85
2023-01-29T04:43:24.537Z,13.20
2023-01-29T04:44:37.593Z,13.15
2023-01-29T04:45:47.996Z,13.02
2023-01-29T04:47:03.357Z,13.30
2023-01-29T04:48:30.165Z,13.88
2023-01-29T04:49:43.846Z,12.68
2023-01-29T04:50:56.637Z,12.75
2023-01-29T04:52:07.095Z,13.52
2023-01-29T04:53:37.449Z,13.02
2023-01-29T04:54:54.266Z,13.50
2023-01-29T04:56:06.163Z,13.25
2023-01-29T04:57:17.965Z,14.18
2023-01-29T04:58:33.120Z,14.00
2023-01-29T04:59:44.987Z,13.68
2023-01-29T05:00:53.444Z,13.02
2023-01-29T05:01:55.531Z,15.07
2023-01-29T05:02:57.525Z,14.38
2023-01-29T05:04:02.093Z,13.80
2023-01-29T05:05:06.112Z,14.10
2023-01-29T05:06:09.942Z,14.77
2023-01-29T05:07:14.388Z,14.82
2023-01-29T05:08:21.654Z,13.55
2023-01-29T05:09:25.033Z,13.55
2023-01-29T05:10:27.218Z,14.43
2023-01-29T05:12:34.155Z,13.38
2023-01-29T05:13:40.533Z,13.27
2023-01-29T05:14:44.471Z,14.32
2023-01-29T05:15:52.424Z,13.90
2023-01-29T05:16:58.234Z,14.88
2023-01-29T05:18:02.875Z,15.80
2023-01-29T05:19:04.315Z,14.50
2023-01-29T05:20:07.065Z,15.65
2023-01-29T05:21:09.463Z,14.55
2023-01-29T05:22:15.403Z,16.00
2023-01-29T05:23:18.764Z,15.15
2023-01-29T05:24:22.449Z,14.27
2023-01-29T05:25:26.712Z,14.18
2023-01-29T05:26:46.451Z,14.98
2023-01-29T05:28:11.848Z,13.77
2023-01-29T05:29:13.291Z,13.57
2023-01-29T05:30:15.112Z,14.45
2023-01-29T05:31:16.880Z,14.77
2023-01-29T05:32:18.443Z,13.13
2023-01-29T05:33:29.014Z,14.55
2023-01-29T05:34:30.615Z,15.70
2023-01-29T05:35:32.311Z,13.20
2023-01-29T05:36:33.708Z,14.70
2023-01-29T05:37:35.153Z,16.42
2023-01-29T05:38:36.540Z,15.63
2023-01-29T05:39:37.965Z,16.67
2023-01-29T05:40:39.423Z,19.73
2023-01-29T05:41:41.089Z,15.45
2023-01-29T05:42:42.541Z,17.25
2023-01-29T05:43:43.979Z,17.73
2023-01-29T05:44:45.589Z,17.58
2023-01-29T05:45:55.491Z,18.10
2023-01-29T05:46:57.128Z,16.25
2023-01-29T05:48:00.006Z,18.67
2023-01-29T05:49:01.459Z,18.05
2023-01-29T05:50:02.940Z,17.73
2023-01-29T05:51:05.180Z,18.92
2023-01-29T05:53:09.349Z,16.98
2023-01-29T05:54:13.920Z,17.92
2023-01-29T05:55:15.469Z,17.58
2023-01-29T05:56:16.870Z,16.60
2023-01-29T05:57:18.310Z,18.35
2023-01-29T05:58:19.818Z,17.85
2023-01-29T05:59:21.384Z,18.63
2023-01-29T06:00:23.078Z,18.77
2023-01-29T06:01:26.350Z,21.08
2023-01-29T06:02:31.571Z,20.48
2023-01-29T06:03:33.093Z,19.02
2023-01-29T06:04:34.513Z,19.95
2023-01-29T06:05:39.613Z,19.90
2023-01-29T06:06:41.019Z,20.60
2023-01-29T06:07:45.234Z,19.40
2023-01-29T06:08:47.306Z,19.60
2023-01-29T06:09:48.778Z,17.33
2023-01-29T06:10:50.204Z,20.02
2023-01-29T06:11:51.687Z,15.95
2023-01-29T06:12:53.123Z,19.52
2023-01-29T06:13:54.699Z,19.55
2023-01-29T06:14:56.121Z,18.73
2023-01-29T06:15:57.629Z,20.38
2023-01-29T06:16:59.344Z,18.83
2023-01-29T06:18:00.783Z,20.65
2023-01-29T06:19:02.186Z,18.83
2023-01-29T06:20:04.845Z,20.15
2023-01-29T06:21:09.337Z,20.33
2023-01-29T06:22:10.922Z,18.75
2023-01-29T06:23:12.433Z,20.27
2023-01-29T06:24:14.025Z,20.23
2023-01-29T06:25:15.730Z,20.75
2023-01-29T06:26:17.160Z,19.15
2023-01-29T06:27:18.900Z,19.85
2023-01-29T06:28:20.313Z,20.33
2023-01-29T06:29:21.798Z,19.50
2023-01-29T06:30:23.372Z,18.83
2023-01-29T06:31:37.976Z,18.92
2023-01-29T06:32:40.562Z,20.08
2023-01-29T06:33:42.034Z,20.00
2023-01-29T06:34:43.448Z,18.10
2023-01-29T06:35:44.865Z,19.63
2023-01-29T06:36:46.686Z,18.90
2023-01-29T06:37:48.165Z,20.17
2023-01-29T06:38:49.616Z,19.58
2023-01-29T06:39:51.105Z,20.00
2023-01-29T06:40:55.492Z,20.45
2023-01-29T06:41:56.958Z,19.52
2023-01-29T06:43:00.541Z,19.65
2023-01-29T06:44:01.996Z,20.08
2023-01-29T06:45:03.688Z,19.65
2023-01-29T06:46:07.566Z,20.73
2023-01-29T06:47:08.970Z,20.08
2023-01-29T06:48:10.377Z,21.00
2023-01-29T06:49:11.822Z,19.95
2023-01-29T06:50:13.295Z,20.05
2023-01-29T06:51:14.772Z,19.63
2023-01-29T06:52:16.381Z,20.98
2023-01-29T06:53:18.275Z,20.17
2023-01-29T06:54:19.734Z,18.58
2023-01-29T06:55:21.140Z,19.48
2023-01-29T06:56:23.631Z,19.55
2023-01-29T06:57:25.172Z,19.20
2023-01-29T06:58:26.702Z,20.98
2023-01-29T06:59:28.132Z,19.58
2023-01-29T07:00:31.298Z,20.35
2023-01-29T07:01:36.368Z,19.13
2023-01-29T07:02:38.164Z,20.83
2023-01-29T07:03:41.492Z,19.10
2023-01-29T07:04:42.950Z,20.20
2023-01-29T07:05:50.839Z,22.65
2023-01-29T07:06:52.265Z,20.08
2023-01-29T07:07:54.111Z,19.98
2023-01-29T07:08:55.810Z,20.02
2023-01-29T07:09:57.206Z,20.10
2023-01-29T07:11:00.909Z,18.15
2023-01-29T07:12:02.327Z,19.70
2023-01-29T07:13:03.717Z,20.42
2023-01-29T07:14:05.587Z,19.35
2023-01-29T07:15:07.620Z,19.38
2023-01-29T07:16:09.618Z,19.58
2023-01-29T07:17:11.140Z,19.92
2023-01-29T07:18:12.622Z,20.25
2023-01-29T07:19:14.231Z,19.40
2023-01-29T07:20:16.131Z,18.30
2023-01-29T07:21:17.733Z,18.38
2023-01-29T07:22:19.137Z,19.25
2023-01-29T07:23:20.566Z,20.30
2023-01-29T07:24:22.145Z,19.25
2023-01-29T07:25:24.712Z,19.88
2023-01-29T07:26:26.308Z,21.08
2023-01-29T07:27:27.692Z,19.90
2023-01-29T07:28:29.409Z,18.20
2023-01-29T07:29:30.903Z,19.80
2023-01-29T07:30:32.395Z,18.20
2023-01-29T07:31:34.352Z,19.88
2023-01-29T07:32:35.876Z,19.45
2023-01-29T07:33:37.328Z,19.30
2023-01-29T07:34:38.727Z,19.52
2023-01-29T07:35:42.217Z,18.40
2023-01-29T07:36:43.629Z,19.88
2023-01-29T07:37:45.102Z,20.02
2023-01-29T07:38:50.541Z,19.48
2023-01-29T07:39:52.052Z,19.33
2023-01-29T07:40:53.821Z,20.48
2023-01-29T07:41:55.235Z,20.23
2023-01-29T07:43:05.208Z,20.40
2023-01-29T07:44:06.618Z,19.98
2023-01-29T07:45:08.686Z,20.77
2023-01-29T07:46:10.133Z,20.08
2023-01-29T07:47:12.221Z,20.00
2023-01-29T07:48:14.104Z,20.63
2023-01-29T07:49:16.566Z,20.27
2023-01-29T07:50:18.291Z,18.95
2023-01-29T07:51:21.345Z,19.08
2023-01-29T07:52:22.800Z,20.13
2023-01-29T07:53:25.243Z,19.25
2023-01-29T07:54:26.661Z,21.38
2023-01-29T07:55:28.354Z,20.20
2023-01-29T07:56:29.825Z,19.95
2023-01-29T07:57:31.260Z,20.00
2023-01-29T07:58:34.410Z,20.65
2023-01-29T07:59:37.000Z,21.70
2023-01-29T08:00:38.720Z,20.08
2023-01-29T08:01:40.122Z,19.77
2023-01-29T08:02:41.973Z,21.23
2023-01-29T08:03:43.386Z,19.38
2023-01-29T08:04:44.852Z,17.58
2023-01-29T08:05:47.012Z,20.13
2023-01-29T08:08:05.739Z,17.08
2023-01-29T08:09:08.792Z,19.08
2023-01-29T08:10:10.858Z,15.40
2023-01-29T08:11:12.264Z,17.92
2023-01-29T08:12:14.405Z,19.75
2023-01-29T08:14:17.212Z,17.55
2023-01-29T08:15:18.647Z,19.38
2023-01-29T08:16:20.105Z,18.67
2023-01-29T08:17:21.586Z,20.38
2023-01-29T08:18:23.003Z,21.13
2023-01-29T08:19:24.456Z,19.75
2023-01-29T08:20:26.327Z,19.63
2023-01-29T08:21:27.904Z,20.88
2023-01-29T08:22:29.355Z,20.45
2023-01-29T08:23:30.838Z,21.23
2023-01-29T08:24:47.437Z,22.13
2023-01-29T08:25:54.165Z,19.33
2023-01-29T08:26:55.679Z,20.83
2023-01-29T08:27:58.082Z,20.02
2023-01-29T08:28:59.578Z,20.70
2023-01-29T08:30:01.058Z,21.75
2023-01-29T08:31:02.596Z,20.75
2023-01-29T08:32:04.126Z,18.35
2023-01-29T08:33:05.643Z,21.60
2023-01-29T08:34:07.119Z,20.25
2023-01-29T08:35:09.073Z,19.75
2023-01-29T08:36:10.751Z,19.52
2023-01-29T08:37:12.202Z,17.23
2023-01-29T08:38:13.635Z,21.65
2023-01-29T08:39:15.242Z,20.58
2023-01-29T08:40:16.993Z,21.10
2023-01-29T08:41:18.527Z,21.77
2023-01-29T08:42:19.961Z,22.35
2023-01-29T08:43:21.360Z,22.45
2023-01-29T08:44:22.786Z,17.20
2023-01-29T08:45:24.230Z,20.92
2023-01-29T08:46:25.954Z,23.75
2023-01-29T08:48:31.248Z,19.15
2023-01-29T08:49:32.742Z,18.25
2023-01-29T08:50:35.051Z,19.73
2023-01-29T08:51:36.491Z,20.25
2023-01-29T08:52:37.950Z,19.23
2023-01-29T08:53:39.369Z,19.67
2023-01-29T08:54:40.781Z,21.25
2023-01-29T08:55:42.219Z,21.05
2023-01-29T08:56:44.005Z,20.75
2023-01-29T08:57:45.487Z,21.05
2023-01-29T08:58:46.931Z,20.25
2023-01-29T08:59:48.361Z,21.23
2023-01-29T09:00:49.785Z,21.08
2023-01-29T09:01:51.250Z,21.42
2023-01-29T09:02:52.662Z,21.02
2023-01-29T09:03:54.061Z,20.67
2023-01-29T09:04:55.796Z,21.02
2023-01-29T09:05:57.218Z,21.50
2023-01-29T09:06:58.718Z,21.85
2023-01-29T09:08:00.182Z,21.30
2023-01-29T09:09:01.700Z,21.15
2023-01-29T09:10:03.594Z,22.05
2023-01-29T09:11:05.302Z,21.17
2023-01-29T09:12:06.944Z,20.65
2023-01-29T09:13:08.375Z,19.58
2023-01-29T09:14:12.239Z,19.02
2023-01-29T09:15:13.702Z,21.52
2023-01-29T09:16:15.201Z,19.90
2023-01-29T09:17:16.638Z,22.48
2023-01-29T09:18:18.243Z,18.73
2023-01-29T09:19:19.664Z,23.45
2023-01-29T09:20:21.226Z,20.20
2023-01-29T09:21:22.627Z,18.58
2023-01-29T09:22:24.362Z,19.60
2023-01-29T09:23:25.841Z,19.02
2023-01-29T09:24:27.277Z,19.48
2023-01-29T09:25:28.713Z,21.63
2023-01-29T09:26:30.248Z,19.27
2023-01-29T09:27:31.749Z,21.52
2023-01-29T09:28:33.200Z,20.70
2023-01-29T09:29:35.955Z,19.65
2023-01-29T09:30:38.181Z,16.48
2023-01-29T09:31:39.817Z,18.73
2023-01-29T09:32:53.157Z,18.88
2023-01-29T09:33:55.255Z,20.27
2023-01-29T09:34:57.454Z,19.60
2023-01-29T09:35:58.921Z,20.13
2023-01-29T09:37:00.369Z,19.58
2023-01-29T09:38:02.047Z,19.77
2023-01-29T09:39:03.565Z,20.23
2023-01-29T09:40:05.719Z,17.58
2023-01-29T09:42:30.767Z,16.98
2023-01-29T09:43:42.962Z,15.63
2023-01-29T09:45:10.499Z,18.17
2023-01-29T09:46:29.188Z,16.98
2023-01-29T09:47:34.564Z,16.98
2023-01-29T09:48:36.824Z,19.88
2023-01-29T09:49:43.489Z,16.73
2023-01-29T09:50:49.784Z,18.13
2023-01-29T09:52:02.499Z,20.35
2023-01-29T09:53:21.955Z,19.10
2023-01-29T09:54:29.761Z,17.92
2023-01-29T09:55:36.396Z,18.10
2023-01-29T09:56:37.894Z,18.92
2023-01-29T09:57:50.010Z,18.40
2023-01-29T09:58:51.561Z,17.70
2023-01-29T09:59:53.121Z,18.90
2023-01-29T10:01:23.368Z,18.73
2023-01-29T10:03:12.474Z,16.10
2023-01-29T10:04:37.437Z,17.13
2023-01-29T10:05:50.813Z,17.05
2023-01-29T10:07:26.513Z,15.30
2023-01-29T10:09:06.522Z,15.82
2023-01-29T10:10:37.472Z,15.23
2023-01-29T10:11:44.361Z,16.48
2023-01-29T10:13:08.054Z,15.82
2023-01-29T10:14:12.205Z,17.27
2023-01-29T10:15:28.793Z,15.05
2023-01-29T10:16:49.124Z,16.50
2023-01-29T10:18:05.556Z,16.77
2023-01-29T10:19:16.238Z,15.32
2023-01-29T10:20:35.833Z,17.75
2023-01-29T10:22:10.670Z,16.08
2023-01-29T10:23:21.188Z,16.20
2023-01-29T10:24:39.194Z,16.73
2023-01-29T10:25:42.146Z,15.55
2023-01-29T10:26:43.659Z,15.63
2023-01-29T10:27:54.869Z,14.93
2023-01-29T10:28:59.470Z,15.25
2023-01-29T10:30:04.194Z,15.70
2023-01-29T10:31:12.535Z,16.70
2023-01-29T10:32:19.934Z,15.70
2023-01-29T10:34:10.925Z,16.52
2023-01-29T10:35:22.042Z,14.38
2023-01-29T10:36:44.229Z,14.48
2023-01-29T10:37:45.875Z,14.15
2023-01-29T10:38:49.060Z,12.98
2023-01-29T10:39:51.187Z,14.70
2023-01-29T10:42:23.694Z,13.57
2023-01-29T10:43:43.925Z,13.02
2023-01-29T10:44:48.227Z,14.55
2023-01-29T10:45:54.876Z,16.45
2023-01-29T10:47:05.713Z,13.65
2023-01-29T10:48:40.883Z,14.82
2023-01-29T10:50:01.008Z,14.43
2023-01-29T10:52:37.640Z,13.02
2023-01-29T10:53:59.380Z,12.02
2023-01-29T10:55:05.288Z,14.23
2023-01-29T10:56:23.678Z,15.00
2023-01-29T10:57:45.224Z,17.27
2023-01-29T10:58:59.443Z,12.05
2023-01-29T11:00:18.901Z,12.10
2023-01-29T11:01:20.747Z,13.38
2023-01-29T11:02:22.707Z,13.73
2023-01-29T11:03:28.336Z,12.95
2023-01-29T11:04:32.360Z,13.80
2023-01-29T11:05:44.286Z,14.65
2023-01-29T11:06:46.216Z,14.10
2023-01-29T11:07:49.345Z,13.98
2023-01-29T11:09:11.716Z,12.88
2023-01-29T11:10:20.526Z,13.32
2023-01-29T11:11:39.452Z,13.82
2023-01-29T11:12:42.010Z,12.73
2023-01-29T11:13:52.982Z,12.15
2023-01-29T11:15:01.604Z,13.18
2023-01-29T11:16:05.372Z,12.20
2023-01-29T11:17:15.795Z,13.63
2023-01-29T11:18:17.451Z,13.75
2023-01-29T11:19:36.302Z,13.52
2023-01-29T11:20:37.848Z,12.77
2023-01-29T11:21:53.332Z,11.80
2023-01-29T11:22:55.726Z,13.65
2023-01-29T11:24:17.597Z,12.18
2023-01-29T11:25:20.289Z,12.40
2023-01-29T11:26:23.790Z,12.95
2023-01-29T11:27:29.491Z,11.77
2023-01-29T11:28:45.617Z,13.93
2023-01-29T11:29:51.139Z,12.98
2023-01-29T11:30:53.377Z,12.82
2023-01-29T11:31:55.334Z,11.18
2023-01-29T11:33:21.968Z,12.20
2023-01-29T11:34:27.784Z,13.40
2023-01-29T11:35:30.597Z,13.60
2023-01-29T11:36:38.335Z,12.85
2023-01-29T11:37:42.401Z,12.20
2023-01-29T11:38:43.839Z,12.90
2023-01-29T11:39:50.506Z,13.27
2023-01-29T11:40:52.693Z,13.45
2023-01-29T11:42:05.084Z,13.55
2023-01-29T11:43:18.798Z,13.07
2023-01-29T11:44:26.380Z,10.95
2023-01-29T11:45:32.160Z,12.27
2023-01-29T11:46:33.691Z,11.02
2023-01-29T11:47:35.464Z,11.75
2023-01-29T11:48:43.808Z,13.10
2023-01-29T11:49:49.480Z,11.52
2023-01-29T11:50:53.806Z,12.52
2023-01-29T11:51:56.591Z,10.82
2023-01-29T11:53:01.665Z,12.05
2023-01-29T11:54:05.226Z,11.95
2023-01-29T11:55:18.039Z,11.88
2023-01-29T11:56:45.941Z,11.90
2023-01-29T11:57:52.722Z,12.20
2023-01-29T11:58:57.549Z,12.13
2023-01-29T12:00:20.462Z,10.00
2023-01-29T12:01:42.136Z,12.65
2023-01-29T12:02:47.227Z,11.63
2023-01-29T12:03:53.862Z,11.20
2023-01-29T12:05:00.138Z,12.60
2023-01-29T12:06:08.992Z,11.25
2023-01-29T12:07:15.820Z,11.88
2023-01-29T12:08:18.857Z,11.18
2023-01-29T12:09:24.188Z,11.18
2023-01-29T12:10:40.843Z,11.60
2023-01-29T12:11:42.274Z,11.50
2023-01-29T12:12:43.829Z,12.07
2023-01-29T12:13:54.641Z,9.77
2023-01-29T12:15:14.120Z,11.18
2023-01-29T12:16:25.624Z,8.98
2023-01-29T12:17:30.744Z,11.40
2023-01-29T12:18:37.577Z,10.65
2023-01-29T12:19:46.326Z,11.30
2023-01-29T12:20:59.870Z,12.70
2023-01-29T12:22:35.300Z,11.27
2023-01-29T12:23:51.847Z,10.38
2023-01-29T12:25:16.311Z,11.32
2023-01-29T12:26:35.314Z,11.45
2023-01-29T12:28:09.567Z,10.40
2023-01-29T12:29:56.281Z,10.52
2023-01-29T12:31:00.489Z,9.90
2023-01-29T12:32:15.014Z,10.60
2023-01-29T12:33:26.659Z,10.80
2023-01-29T12:34:34.643Z,11.45
2023-01-29T12:35:44.122Z,11.38
2023-01-29T12:36:47.022Z,10.75
2023-01-29T12:38:00.913Z,12.90
2023-01-29T12:39:02.440Z,10.93
2023-01-29T12:40:21.707Z,11.43
2023-01-29T12:41:26.002Z,10.85
2023-01-29T12:42:28.064Z,11.13
2023-01-29T12:44:14.350Z,11.18
2023-01-29T12:45:22.663Z,10.73
2023-01-29T12:46:30.198Z,10.02
2023-01-29T12:47:38.223Z,10.18
2023-01-29T12:48:43.777Z,10.75
2023-01-29T12:49:50.164Z,11.48
2023-01-29T12:50:53.882Z,10.55
2023-01-29T12:52:07.353Z,12.05
2023-01-29T12:53:20.911Z,11.57
2023-01-29T12:54:31.207Z,9.77
2023-01-29T12:55:43.640Z,11.73
2023-01-29T12:56:49.825Z,11.38
2023-01-29T12:57:58.535Z,10.82
2023-01-29T12:59:04.504Z,11.02
2023-01-29T13:00:15.060Z,10.77
2023-01-29T13:01:32.025Z,10.73
2023-01-29T13:02:45.349Z,10.25
2023-01-29T13:03:59.463Z,10.30
2023-01-29T13:06:50.869Z,10.68
2023-01-29T13:07:58.657Z,10.70
2023-01-29T13:09:04.948Z,11.10
2023-01-29T13:10:15.773Z,10.00
2023-01-29T13:11:23.380Z,11.05
2023-01-29T13:12:25.780Z,11.52
2023-01-29T13:13:54.364Z,11.82
2023-01-29T13:15:00.563Z,11.20
2023-01-29T13:16:07.299Z,10.35
2023-01-29T13:17:33.006Z,10.63
2023-01-29T13:18:48.364Z,9.55
2023-01-29T13:19:52.454Z,10.82
2023-01-29T13:20:54.425Z,11.95
2023-01-29T13:21:59.759Z,10.57
2023-01-29T13:23:15.241Z,10.55
2023-01-29T13:24:21.401Z,11.27
2023-01-29T13:25:22.859Z,10.25
2023-01-29T13:26:26.468Z,10.30
2023-01-29T13:27:30.625Z,11.02
2023-01-29T13:28:32.689Z,10.90
2023-01-29T13:29:34.382Z,10.85
2023-01-29T13:30:37.085Z,10.70
2023-01-29T13:31:41.196Z,10.32
2023-01-29T13:32:50.661Z,11.07
2023-01-29T13:34:15.429Z,10.45
2023-01-29T13:35:20.756Z,10.02
2023-01-29T13:36:27.767Z,10.60
2023-01-29T13:37:31.709Z,11.27
2023-01-29T13:38:35.341Z,11.52
2023-01-29T13:39:44.545Z,10.73
2023-01-29T13:40:50.837Z,11.35
2023-01-29T13:41:53.574Z,11.05
2023-01-29T13:42:58.930Z,11.13
2023-01-29T13:44:02.059Z,10.13
2023-01-29T13:46:14.083Z,9.27
2023-01-29T13:47:28.386Z,9.32
2023-01-29T13:48:32.473Z,10.75
2023-01-29T13:49:53.109Z,10.73
2023-01-29T13:50:57.600Z,10.52
2023-01-29T13:52:13.791Z,10.82
2023-01-29T13:53:25.369Z,11.02
2023-01-29T13:54:27.724Z,10.55
2023-01-29T13:55:40.466Z,10.15
2023-01-29T13:56:48.841Z,10.52
2023-01-29T13:57:55.845Z,10.77
2023-01-29T13:58:57.865Z,10.80
2023-01-29T13:59:59.394Z,9.73
2023-01-29T14:01:03.652Z,11.30
2023-01-29T14:02:20.615Z,11.10
2023-01-29T14:03:24.923Z,10.52
2023-01-29T14:04:30.574Z,10.70
2023-01-29T14:05:32.052Z,10.63
2023-01-29T14:06:41.443Z,10.60
2023-01-29T14:07:45.834Z,10.60
2023-01-29T14:08:47.800Z,11.68
2023-01-29T14:10:01.066Z,10.95
2023-01-29T14:11:15.222Z,10.18
2023-01-29T14:13:33.982Z,10.32
2023-01-29T14:14:56.980Z,10.07
2023-01-29T14:15:58.385Z,9.48
2023-01-29T14:17:02.285Z,11.40
2023-01-29T14:18:13.982Z,12.27
2023-01-29T14:19:19.187Z,12.20
2023-01-29T14:20:27.728Z,12.30
2023-01-29T14:21:36.985Z,12.63
2023-01-29T14:22:38.446Z,12.10
2023-01-29T14:23:51.313Z,12.35
2023-01-29T14:25:00.407Z,12.57
2023-01-29T14:26:05.371Z,11.88
2023-01-29T14:27:21.563Z,14.30
2023-01-29T14:28:26.015Z,12.90
2023-01-29T14:29:38.021Z,11.88
2023-01-29T14:30:41.104Z,12.68
2023-01-29T14:32:00.903Z,11.23
2023-01-29T14:33:03.207Z,13.02
2023-01-29T14:34:13.624Z,12.60
2023-01-29T14:35:20.366Z,14.70
2023-01-29T14:36:23.712Z,14.35
2023-01-29T14:37:34.537Z,13.95
2023-01-29T14:38:36.687Z,13.75
2023-01-29T14:40:46.833Z,13.07
2023-01-29T14:41:50.669Z,13.75
2023-01-29T14:43:10.140Z,14.65
2023-01-29T14:44:42.862Z,14.75
2023-01-29T14:45:45.058Z,13.07
2023-01-29T14:46:46.579Z,15.35
2023-01-29T14:47:47.921Z,15.00
2023-01-29T14:48:49.547Z,15.65
2023-01-29T14:49:58.901Z,16.50
2023-01-29T14:51:09.601Z,15.05
2023-01-29T14:52:13.130Z,15.52
2023-01-29T14:53:26.946Z,16.17